Time,TemperatureF,DewpointF,PressureIn,WindDirection,WindDirectionDegrees,WindSpeedMPH,WindSpeedGustMPH,Humidity,HourlyPrecipIn,Conditions,Clouds,dailyrainin,SolarRadiationWatts/m^2,SoftwareType,DateUTC
2015-09-01 00:01:00,72.3,68.9,29.95,NW,308,0.0,0.0,89,0.00,,,0.00,0.00,Weather logger V3.0.,2015-09-01 05:01:00,
2015-09-01 00:06:00,72.3,68.9,29.95,NW,307,0.0,0.0,89,0.00,,,0.00,0.00,Weather logger V3.0.,2015-09-01 05:06:00,
2015-09-01 00:11:00,72.1,68.7,29.95,WNW,297,0.0,0.0,89,0.00,,,0.00,0.00,Weather logger V3.0.,2015-09-01 05:11:00,
2015-09-01 00:16:00,72.1,68.7,29.95,WSW,250,0.0,0.0,89,0.00,,,0.00,0.00,Weather logger V3.0.,2015-09-01 05:16:00,
2015-09-01 00:21:00,72.1,68.7,29.96,North,352,0.0,0.0,89,0.00,,,0.00,0.00,Weather logger V3.0.,2015-09-01 05:21:00,
2015-09-01 00:26:00,72.0,68.5,29.95,SSE,148,0.0,0.0,89,0.00,,,0.00,0.00,Weather logger V3.0.,2015-09-01 05:26:00,
2015-09-01 00:31:00,72.1,68.7,29.95,NE,49,0.0,0.0,89,0.00,,,0.00,0.00,Weather logger V3.0.,2015-09-01 05:31:00,
2015-09-01 00:36:00,72.1,68.7,29.95,NW,316,0.0,0.0,89,0.00,,,0.00,0.00,Weather logger V3.0.,2015-09-01 05:36:00,
2015-09-01 00:41:00,72.1,69.1,29.96,NW,313,0.0,0.0,90,0.00,,,0.00,0.00,Weather logger V3.0.,2015-09-01 05:41:00,
2015-09-01 00:46:00,72.1,69.1,29.95,NW,319,0.0,0.0,90,0.00,,,0.00,0.00,Weather logger V3.0.,2015-09-01 05:46:00,
2015-09-01 00:51:00,72.1,69.1,29.96,NNW,332,0.0,0.0,90,0.00,,,0.00,0.00,Weather logger V3.0.,2015-09-01 05:51:00,
2015-09-01 00:56:00,72.0,68.9,29.96,NNW,327,0.0,0.0,90,0.00,,,0.00,0.00,Weather logger V3.0.,2015-09-01 05:56:00,
2015-09-01 01:01:00,72.0,68.9,29.96,NW,324,0.0,0.0,90,0.00,,,0.00,0.00,Weather logger V3.0.,2015-09-01 06:01:00,
2015-09-01 01:06:00,72.0,68.9,29.95,NW,317,0.0,0.0,90,0.00,,,0.00,0.00,Weather logger V3.0.,2015-09-01 06:06:00,
2015-09-01 01:11:00,71.8,68.7,29.96,NW,314,0.0,0.0,90,0.00,,,0.00,0.00,Weather logger V3.0.,2015-09-01 06:11:00,
2015-09-01 01:16:00,71.8,68.7,29.96,NW,305,0.0,0.0,90,0.00,,,0.00,0.00,Weather logger V3.0.,2015-09-01 06:16:00,
2015-09-01 01:22:00,71.6,68.9,29.96,West,259,0.0,0.0,91,0.00,,,0.00,0.00,Weather logger V3.0.,2015-09-01 06:22:00,
2015-09-01 01:27:00,71.6,68.9,29.96,West,263,0.0,0.0,91,0.00,,,0.00,0.00,Weather logger V3.0.,2015-09-01 06:27:00,
2015-09-01 01:32:00,71.4,68.7,29.96,West,276,0.0,0.0,91,0.00,,,0.00,0.00,Weather logger V3.0.,2015-09-01 06:32:00,
2015-09-01 01:37:00,71.4,68.7,29.96,NW,309,0.0,0.0,91,0.00,,,0.00,0.00,Weather logger V3.0.,2015-09-01 06:37:00,
2015-09-01 01:42:00,71.2,68.5,29.96,NW,307,0.0,0.0,91,0.00,,,0.00,0.00,Weather logger V3.0.,2015-09-01 06:42:00,
2015-09-01 01:47:00,71.1,68.4,29.96,SW,236,0.0,0.0,91,0.00,,,0.00,0.00,Weather logger V3.0.,2015-09-01 06:47:00,
2015-09-01 01:52:00,71.1,68.4,29.96,NW,309,0.0,0.0,91,0.00,,,0.00,0.00,Weather logger V3.0.,2015-09-01 06:52:00,
2015-09-01 01:57:00,70.9,68.2,29.96,NW,312,0.0,0.0,91,0.00,,,0.00,0.00,Weather logger V3.0.,2015-09-01 06:57:00,
2015-09-01 02:02:00,70.9,68.2,29.96,NW,307,0.0,0.0,91,0.00,,,0.00,0.00,Weather logger V3.0.,2015-09-01 07:02:00,
2015-09-01 02:07:00,70.9,68.2,29.95,NW,309,0.0,0.0,91,0.00,,,0.00,0.00,Weather logger V3.0.,2015-09-01 07:07:00,
2015-09-01 02:12:00,70.7,68.0,29.95,West,261,0.0,0.0,91,0.00,,,0.00,0.00,Weather logger V3.0.,2015-09-01 07:12:00,
2015-09-01 02:17:00,70.7,68.4,29.95,NW,326,0.0,0.0,92,0.00,,,0.00,0.00,Weather logger V3.0.,2015-09-01 07:17:00,
2015-09-01 02:22:00,70.7,68.4,29.95,WNW,302,0.0,0.0,92,0.00,,,0.00,0.00,Weather logger V3.0.,2015-09-01 07:22:00,
2015-09-01 02:27:00,70.7,68.4,29.95,NW,312,0.0,0.0,92,0.00,,,0.00,0.00,Weather logger V3.0.,2015-09-01 07:27:00,
2015-09-01 02:33:00,70.7,68.4,29.95,NW,311,0.0,0.0,92,0.00,,,0.00,0.00,Weather logger V3.0.,2015-09-01 07:33:00,
2015-09-01 02:38:00,70.7,68.4,29.95,NW,310,0.0,0.0,92,0.00,,,0.00,0.00,Weather logger V3.0.,2015-09-01 07:38:00,
2015-09-01 02:43:00,70.7,68.4,29.95,NW,307,0.0,0.0,92,0.00,,,0.00,0.00,Weather logger V3.0.,2015-09-01 07:43:00,
2015-09-01 02:48:00,70.5,68.2,29.95,WNW,303,0.0,0.0,92,0.00,,,0.00,0.00,Weather logger V3.0.,2015-09-01 07:48:00,
2015-09-01 02:53:00,70.5,68.2,29.95,West,261,0.0,0.0,92,0.00,,,0.00,0.00,Weather logger V3.0.,2015-09-01 07:53:00,
2015-09-01 02:58:00,70.5,68.2,29.95,NW,307,0.0,0.0,92,0.00,,,0.00,0.00,Weather logger V3.0.,2015-09-01 07:58:00,
2015-09-01 03:03:00,70.5,68.2,29.95,NW,308,0.0,0.0,92,0.00,,,0.00,0.00,Weather logger V3.0.,2015-09-01 08:03:00,
2015-09-01 03:08:00,70.3,68.0,29.95,NW,310,0.0,0.0,92,0.00,,,0.00,0.00,Weather logger V3.0.,2015-09-01 08:08:00,
2015-09-01 03:13:00,70.3,68.0,29.96,NW,312,0.0,0.0,92,0.00,,,0.00,0.00,Weather logger V3.0.,2015-09-01 08:13:00,
2015-09-01 03:18:00,70.2,67.8,29.95,NW,311,0.0,0.0,92,0.00,,,0.00,0.00,Weather logger V3.0.,2015-09-01 08:18:00,
2015-09-01 03:23:00,70.2,67.8,29.95,NW,311,0.0,0.0,92,0.00,,,0.00,0.00,Weather logger V3.0.,2015-09-01 08:23:00,
2015-09-01 03:29:00,70.0,67.6,29.96,NNW,327,0.0,0.0,92,0.00,,,0.00,0.00,Weather logger V3.0.,2015-09-01 08:29:00,
2015-09-01 03:34:00,70.0,67.6,29.95,NNW,344,0.0,0.0,92,0.00,,,0.00,0.00,Weather logger V3.0.,2015-09-01 08:34:00,
2015-09-01 03:39:00,69.8,67.5,29.95,NNW,330,0.0,0.0,92,0.00,,,0.00,0.00,Weather logger V3.0.,2015-09-01 08:39:00,
2015-09-01 03:44:00,69.8,67.6,29.96,NNW,333,0.0,0.0,93,0.00,,,0.00,0.00,Weather logger V3.0.,2015-09-01 08:44:00,
2015-09-01 03:49:00,69.8,67.6,29.95,NW,318,0.0,0.0,93,0.00,,,0.00,0.00,Weather logger V3.0.,2015-09-01 08:49:00,
2015-09-01 03:54:00,69.6,67.5,29.96,NW,316,0.0,0.0,93,0.00,,,0.00,0.00,Weather logger V3.0.,2015-09-01 08:54:00,
2015-09-01 03:59:00,69.6,67.5,29.95,NW,317,0.0,0.0,93,0.00,,,0.00,0.00,Weather logger V3.0.,2015-09-01 08:59:00,
2015-09-01 04:04:00,69.6,67.5,29.96,WSW,245,0.0,0.0,93,0.00,,,0.00,0.00,Weather logger V3.0.,2015-09-01 09:04:00,
2015-09-01 04:09:00,69.4,67.5,29.96,NW,314,0.0,0.0,93,0.00,,,0.00,0.00,Weather logger V3.0.,2015-09-01 09:09:00,
2015-09-01 04:14:00,69.4,67.5,29.96,NNW,347,0.0,0.0,93,0.00,,,0.00,0.00,Weather logger V3.0.,2015-09-01 09:14:00,
2015-09-01 04:19:00,69.3,67.3,29.96,NW,308,0.0,0.0,93,0.00,,,0.00,0.00,Weather logger V3.0.,2015-09-01 09:19:00,
2015-09-01 04:25:00,69.3,67.3,29.97,NW,317,0.0,0.0,93,0.00,,,0.00,0.00,Weather logger V3.0.,2015-09-01 09:25:00,
2015-09-01 04:30:00,69.3,67.3,29.96,NW,315,0.0,0.0,93,0.00,,,0.00,0.00,Weather logger V3.0.,2015-09-01 09:30:00,
2015-09-01 04:35:00,69.1,67.1,29.97,NNW,347,0.0,0.0,93,0.00,,,0.00,0.00,Weather logger V3.0.,2015-09-01 09:35:00,
2015-09-01 04:40:00,69.1,67.1,29.96,North,5,0.0,0.0,93,0.00,,,0.00,0.00,Weather logger V3.0.,2015-09-01 09:40:00,
2015-09-01 04:45:00,69.1,67.1,29.96,NW,326,0.0,0.0,93,0.00,,,0.00,0.00,Weather logger V3.0.,2015-09-01 09:45:00,
2015-09-01 04:50:00,68.9,66.9,29.96,NNW,339,0.0,0.0,93,0.00,,,0.00,0.00,Weather logger V3.0.,2015-09-01 09:50:00,
2015-09-01 04:55:00,68.9,66.9,29.97,NNW,330,0.0,0.0,93,0.00,,,0.00,0.00,Weather logger V3.0.,2015-09-01 09:55:00,
2015-09-01 05:00:00,68.9,66.9,29.97,NNW,327,0.0,0.0,93,0.00,,,0.00,0.00,Weather logger V3.0.,2015-09-01 10:00:00,
2015-09-01 05:05:00,68.9,66.9,29.97,NNW,331,0.0,0.0,93,0.00,,,0.00,0.00,Weather logger V3.0.,2015-09-01 10:05:00,
2015-09-01 05:10:00,68.7,66.7,29.97,North,356,0.0,0.0,93,0.00,,,0.00,0.00,Weather logger V3.0.,2015-09-01 10:10:00,
2015-09-01 05:15:00,68.7,66.7,29.97,North,351,0.0,0.0,93,0.00,,,0.00,0.00,Weather logger V3.0.,2015-09-01 10:15:00,
2015-09-01 05:20:00,68.9,66.9,29.97,NNW,340,0.0,0.0,93,0.00,,,0.00,0.00,Weather logger V3.0.,2015-09-01 10:20:00,
2015-09-01 05:25:00,68.9,66.9,29.97,North,5,0.0,0.0,93,0.00,,,0.00,0.00,Weather logger V3.0.,2015-09-01 10:25:00,
2015-09-01 05:30:00,68.9,66.9,29.97,North,358,0.0,0.0,93,0.00,,,0.00,0.00,Weather logger V3.0.,2015-09-01 10:30:00,
2015-09-01 05:35:00,68.7,66.7,29.97,NNW,339,0.0,0.0,93,0.00,,,0.00,0.00,Weather logger V3.0.,2015-09-01 10:35:00,
2015-09-01 05:41:00,68.7,66.7,29.97,NNW,337,0.0,0.0,93,0.00,,,0.00,0.00,Weather logger V3.0.,2015-09-01 10:41:00,
2015-09-01 05:46:00,68.7,66.7,29.97,NNW,347,0.0,0.0,93,0.00,,,0.00,0.00,Weather logger V3.0.,2015-09-01 10:46:00,
2015-09-01 05:51:00,68.7,66.9,29.97,North,353,0.0,0.0,94,0.00,,,0.00,0.00,Weather logger V3.0.,2015-09-01 10:51:00,
2015-09-01 05:56:00,68.7,66.9,29.97,NNW,348,0.0,0.0,94,0.00,,,0.00,0.00,Weather logger V3.0.,2015-09-01 10:56:00,
2015-09-01 06:01:00,68.9,67.1,29.97,NNW,346,0.0,0.0,94,0.00,,,0.00,0.00,Weather logger V3.0.,2015-09-01 11:01:00,
2015-09-01 06:07:00,68.9,67.1,29.97,NNW,333,0.0,0.0,94,0.00,,,0.00,0.00,Weather logger V3.0.,2015-09-01 11:07:00,
2015-09-01 06:12:00,68.9,67.1,29.97,NNW,347,0.0,0.0,94,0.00,,,0.00,0.00,Weather logger V3.0.,2015-09-01 11:12:00,
2015-09-01 06:17:00,68.9,67.1,29.97,NNW,332,0.0,0.0,94,0.00,,,0.00,0.00,Weather logger V3.0.,2015-09-01 11:17:00,
2015-09-01 06:23:00,68.9,67.1,29.97,NNW,330,0.0,0.0,94,0.00,,,0.00,0.00,Weather logger V3.0.,2015-09-01 11:23:00,
2015-09-01 06:28:00,68.9,67.1,29.97,NNW,333,0.0,0.0,94,0.00,,,0.00,0.00,Weather logger V3.0.,2015-09-01 11:28:00,
2015-09-01 06:34:00,68.9,67.1,29.98,NNW,332,0.0,0.0,94,0.00,,,0.00,0.00,Weather logger V3.0.,2015-09-01 11:34:00,
2015-09-01 06:39:00,68.9,67.1,29.98,North,353,0.0,0.0,94,0.00,,,0.00,0.00,Weather logger V3.0.,2015-09-01 11:39:00,
2015-09-01 06:45:00,68.9,67.1,29.98,NNW,340,0.0,0.0,94,0.00,,,0.00,2.82,Weather logger V3.0.,2015-09-01 11:45:00,
2015-09-01 06:58:00,69.1,67.3,29.98,NNW,347,0.0,0.0,94,0.00,,,0.00,16.48,Weather logger V3.0.,2015-09-01 11:58:00,
2015-09-01 07:18:00,70.9,68.7,-100.00,SW,216,1.1,2.5,93,0.00,,,0.00,43.16,Weather logger V3.0.,2015-09-01 12:18:00,
2015-09-01 07:23:00,70.9,68.5,30.65,NNW,348,0.0,0.0,92,0.00,,,0.00,51.94,Weather logger V3.0.,2015-09-01 12:23:00,
2015-09-01 07:29:00,70.9,68.2,29.99,SW,226,0.9,2.5,91,0.00,,,0.00,62.57,Weather logger V3.0.,2015-09-01 12:29:00,
2015-09-01 07:34:00,71.2,68.2,30.00,NW,311,0.0,0.0,90,0.00,,,0.00,73.08,Weather logger V3.0.,2015-09-01 12:34:00,
2015-09-01 07:39:00,71.6,68.2,29.99,West,268,0.0,0.0,89,0.00,,,0.00,82.84,Weather logger V3.0.,2015-09-01 12:39:00,
2015-09-01 07:44:00,72.0,68.5,30.00,North,10,0.0,0.0,89,0.00,,,0.00,89.70,Weather logger V3.0.,2015-09-01 12:44:00,
2015-09-01 07:49:00,72.5,68.5,30.00,NW,306,0.0,0.0,87,0.00,,,0.00,97.62,Weather logger V3.0.,2015-09-01 12:49:00,
2015-09-01 07:54:00,72.9,68.2,30.00,WSW,258,0.0,0.0,85,0.00,,,0.00,102.86,Weather logger V3.0.,2015-09-01 12:54:00,
2015-09-01 07:59:00,73.4,68.4,30.00,SE,135,1.1,2.5,84,0.00,,,0.00,106.81,Weather logger V3.0.,2015-09-01 12:59:00,
2015-09-01 08:04:00,73.8,68.4,30.00,ENE,72,0.4,2.5,83,0.00,,,0.00,114.20,Weather logger V3.0.,2015-09-01 13:04:00,
2015-09-01 08:09:00,74.1,68.0,29.99,SSE,167,0.9,2.5,81,0.00,,,0.00,115.52,Weather logger V3.0.,2015-09-01 13:09:00,
2015-09-01 08:14:00,74.5,68.0,29.99,SW,221,0.4,2.5,80,0.00,,,0.00,131.97,Weather logger V3.0.,2015-09-01 13:14:00,
2015-09-01 08:19:00,74.7,67.8,29.99,South,183,2.0,4.9,79,0.00,,,0.00,122.92,Weather logger V3.0.,2015-09-01 13:19:00,
2015-09-01 08:24:00,75.0,67.8,29.99,SW,217,0.0,0.0,78,0.00,,,0.00,128.32,Weather logger V3.0.,2015-09-01 13:24:00,
2015-09-01 08:29:00,75.2,68.0,30.00,SSW,213,0.4,2.5,78,0.00,,,0.00,130.51,Weather logger V3.0.,2015-09-01 13:29:00,
2015-09-01 08:34:00,75.4,67.6,29.99,South,170,2.5,4.9,77,0.00,,,0.00,134.82,Weather logger V3.0.,2015-09-01 13:34:00,
2015-09-01 08:39:00,75.7,67.6,29.99,WSW,242,0.2,2.5,76,0.00,,,0.00,148.71,Weather logger V3.0.,2015-09-01 13:39:00,
2015-09-01 08:44:00,75.9,67.5,29.99,NNW,331,0.0,0.0,75,0.00,,,0.00,146.22,Weather logger V3.0.,2015-09-01 13:44:00,
2015-09-01 08:50:00,76.3,67.5,29.99,South,177,0.9,2.5,74,0.00,,,0.00,150.06,Weather logger V3.0.,2015-09-01 13:50:00,
2015-09-01 08:55:00,76.5,67.3,29.98,WSW,254,0.0,0.0,73,0.00,,,0.00,177.35,Weather logger V3.0.,2015-09-01 13:55:00,
2015-09-01 09:00:00,76.8,66.7,29.98,WNW,298,0.0,0.0,71,0.00,,,0.00,205.99,Weather logger V3.0.,2015-09-01 14:00:00,
2015-09-01 09:05:00,77.4,66.9,29.98,South,184,3.6,4.9,70,0.00,,,0.00,220.14,Weather logger V3.0.,2015-09-01 14:05:00,
2015-09-01 09:10:00,77.7,66.7,29.98,SW,230,0.9,2.5,69,0.00,,,0.00,228.16,Weather logger V3.0.,2015-09-01 14:10:00,
2015-09-01 09:15:00,78.3,67.3,29.99,South,171,0.9,2.5,69,0.00,,,0.00,235.79,Weather logger V3.0.,2015-09-01 14:15:00,
2015-09-01 09:20:00,78.8,66.9,29.98,South,183,2.7,4.9,67,0.00,,,0.00,245.04,Weather logger V3.0.,2015-09-01 14:20:00,
2015-09-01 09:25:00,79.5,68.0,29.98,SSE,164,3.6,4.9,68,0.00,,,0.00,257.30,Weather logger V3.0.,2015-09-01 14:25:00,
2015-09-01 09:30:00,79.9,67.6,29.98,WSW,241,0.4,2.5,66,0.00,,,0.00,269.24,Weather logger V3.0.,2015-09-01 14:30:00,
2015-09-01 09:35:00,80.2,67.8,29.98,WSW,243,1.8,2.5,66,0.00,,,0.00,280.24,Weather logger V3.0.,2015-09-01 14:35:00,
2015-09-01 09:41:00,80.6,67.8,29.98,WSW,241,0.2,2.5,65,0.00,,,0.00,292.08,Weather logger V3.0.,2015-09-01 14:41:00,
2015-09-01 09:46:00,81.0,67.6,29.98,South,187,1.1,2.5,64,0.00,,,0.00,299.34,Weather logger V3.0.,2015-09-01 14:46:00,
2015-09-01 09:51:00,81.3,68.0,29.98,WSW,242,0.9,2.5,64,0.00,,,0.00,313.79,Weather logger V3.0.,2015-09-01 14:51:00,
2015-09-01 09:56:00,81.7,68.0,29.98,NNW,329,1.1,2.5,63,0.00,,,0.00,323.97,Weather logger V3.0.,2015-09-01 14:56:00,
2015-09-01 10:01:00,82.2,68.4,29.98,WSW,253,0.9,2.5,63,0.00,,,0.00,337.29,Weather logger V3.0.,2015-09-01 15:01:00,
2015-09-01 10:06:00,82.6,68.4,29.98,SW,218,2.0,2.5,62,0.00,,,0.00,347.87,Weather logger V3.0.,2015-09-01 15:06:00,
2015-09-01 10:11:00,82.9,67.6,29.98,SW,228,0.4,2.5,60,0.00,,,0.00,357.15,Weather logger V3.0.,2015-09-01 15:11:00,
2015-09-01 10:16:00,83.3,68.9,29.98,West,263,0.0,0.0,62,0.00,,,0.00,364.54,Weather logger V3.0.,2015-09-01 15:16:00,
2015-09-01 10:21:00,83.7,68.9,29.98,SW,219,0.9,2.5,61,0.00,,,0.00,379.95,Weather logger V3.0.,2015-09-01 15:21:00,
2015-09-01 10:26:00,84.0,68.7,29.98,NW,319,4.5,4.9,60,0.00,,,0.00,384.86,Weather logger V3.0.,2015-09-01 15:26:00,
2015-09-01 10:31:00,84.2,68.4,29.98,SSW,192,1.8,2.5,59,0.00,,,0.00,397.76,Weather logger V3.0.,2015-09-01 15:31:00,
2015-09-01 10:36:00,84.6,68.7,29.98,NW,320,0.0,0.0,59,0.00,,,0.00,404.65,Weather logger V3.0.,2015-09-01 15:36:00,
2015-09-01 10:41:00,84.7,68.9,29.98,WSW,238,2.0,2.5,59,0.00,,,0.00,414.36,Weather logger V3.0.,2015-09-01 15:41:00,
2015-09-01 10:46:00,84.9,68.5,29.98,SW,226,2.7,4.9,58,0.00,,,0.00,423.84,Weather logger V3.0.,2015-09-01 15:46:00,
2015-09-01 10:51:00,85.1,68.2,29.98,SE,128,1.1,2.5,57,0.00,,,0.00,433.19,Weather logger V3.0.,2015-09-01 15:51:00,
2015-09-01 10:57:00,85.5,69.1,29.98,WSW,252,0.4,2.5,58,0.00,,,0.00,438.89,Weather logger V3.0.,2015-09-01 15:57:00,
2015-09-01 11:02:00,85.6,68.2,29.99,SW,215,2.7,4.9,56,0.00,,,0.00,447.71,Weather logger V3.0.,2015-09-01 16:02:00,
2015-09-01 11:07:00,85.8,67.8,29.98,WSW,252,0.9,2.5,55,0.00,,,0.00,459.05,Weather logger V3.0.,2015-09-01 16:07:00,
2015-09-01 11:12:00,86.4,68.4,29.98,WSW,251,0.9,2.5,55,0.00,,,0.00,469.19,Weather logger V3.0.,2015-09-01 16:12:00,
2015-09-01 11:17:00,86.7,68.2,29.98,South,179,2.0,2.5,54,0.00,,,0.00,481.22,Weather logger V3.0.,2015-09-01 16:17:00,
2015-09-01 11:22:00,86.9,68.9,29.98,West,265,3.4,4.9,55,0.00,,,0.00,486.13,Weather logger V3.0.,2015-09-01 16:22:00,
2015-09-01 11:27:00,87.1,68.5,29.98,WSW,249,1.8,2.5,54,0.00,,,0.00,490.37,Weather logger V3.0.,2015-09-01 16:27:00,
2015-09-01 11:32:00,87.3,67.6,29.97,West,265,0.2,2.5,52,0.00,,,0.00,497.80,Weather logger V3.0.,2015-09-01 16:32:00,
2015-09-01 11:37:00,87.6,68.4,29.98,SW,229,2.9,4.9,53,0.00,,,0.00,509.20,Weather logger V3.0.,2015-09-01 16:37:00,
2015-09-01 11:42:00,87.6,67.8,29.98,SSW,204,1.1,2.5,52,0.00,,,0.00,515.00,Weather logger V3.0.,2015-09-01 16:42:00,
2015-09-01 11:47:00,87.8,67.5,29.97,NNW,344,1.3,2.5,51,0.00,,,0.00,525.81,Weather logger V3.0.,2015-09-01 16:47:00,
2015-09-01 11:52:00,88.2,68.4,29.97,SSW,198,3.6,4.9,52,0.00,,,0.00,529.16,Weather logger V3.0.,2015-09-01 16:52:00,
2015-09-01 11:58:00,88.3,69.6,29.97,WSW,246,1.1,2.5,54,0.00,,,0.00,531.28,Weather logger V3.0.,2015-09-01 16:58:00,
2015-09-01 12:03:00,88.3,68.5,29.97,NW,311,3.4,4.9,52,0.00,,,0.00,532.84,Weather logger V3.0.,2015-09-01 17:03:00,
2015-09-01 12:09:00,88.3,69.1,29.97,SW,225,2.9,4.9,53,0.00,,,0.00,536.35,Weather logger V3.0.,2015-09-01 17:09:00,
2015-09-01 12:18:00,88.5,68.2,29.96,WSW,240,2.5,4.9,51,0.00,,,0.00,544.51,Weather logger V3.0.,2015-09-01 17:18:00,
2015-09-01 12:20:00,88.5,68.7,29.97,NW,311,2.7,4.9,52,0.00,,,0.00,548.39,Weather logger V3.0.,2015-09-01 17:20:00,
2015-09-01 12:21:00,88.5,68.7,29.97,North,357,4.2,7.4,52,0.00,,,0.00,548.95,Weather logger V3.0.,2015-09-01 17:21:00,
2015-09-01 12:22:00,88.5,67.6,29.97,South,188,1.8,2.5,50,0.00,,,0.00,548.55,Weather logger V3.0.,2015-09-01 17:22:00,
2015-09-01 12:23:00,88.5,67.6,29.97,NNE,12,0.2,2.5,50,0.00,,,0.00,548.78,Weather logger V3.0.,2015-09-01 17:23:00,
2015-09-01 12:33:00,89.4,68.4,29.97,SSW,193,2.0,4.9,50,0.00,,,0.00,560.58,Weather logger V3.0.,2015-09-01 17:33:00,
2015-09-01 12:53:00,89.8,68.7,-100.00,SE,143,1.8,2.5,50,0.00,,,0.00,557.17,Weather logger V3.0.,2015-09-01 17:53:00,
2015-09-01 12:54:00,89.8,68.7,-100.00,SSW,202,2.0,2.5,50,0.00,,,0.00,556.08,Weather logger V3.0.,2015-09-01 17:54:00,
2015-09-01 12:59:00,89.8,68.2,29.97,SE,136,2.0,2.5,49,0.00,,,0.00,565.69,Weather logger V3.0.,2015-09-01 17:59:00,
2015-09-01 13:04:00,90.1,68.5,29.97,West,279,1.1,2.5,49,0.00,,,0.00,564.73,Weather logger V3.0.,2015-09-01 18:04:00,
2015-09-01 13:09:00,90.3,68.7,29.96,WSW,252,2.5,4.9,49,0.00,,,0.00,567.84,Weather logger V3.0.,2015-09-01 18:09:00,
2015-09-01 13:14:00,90.5,69.4,29.96,SW,225,2.0,2.5,50,0.00,,,0.00,563.14,Weather logger V3.0.,2015-09-01 18:14:00,
2015-09-01 13:19:00,90.7,68.4,29.96,South,180,2.7,4.9,48,0.00,,,0.00,571.62,Weather logger V3.0.,2015-09-01 18:19:00,
2015-09-01 13:24:00,91.0,68.7,29.96,SSW,199,1.8,2.5,48,0.00,,,0.00,572.09,Weather logger V3.0.,2015-09-01 18:24:00,
2015-09-01 13:29:00,91.2,69.4,29.96,WSW,243,3.4,4.9,49,0.00,,,0.00,574.84,Weather logger V3.0.,2015-09-01 18:29:00,
2015-09-01 13:34:00,91.2,69.4,29.96,West,266,1.3,2.5,49,0.00,,,0.00,575.97,Weather logger V3.0.,2015-09-01 18:34:00,
2015-09-01 13:39:00,91.6,69.3,29.96,SSW,200,3.4,4.9,48,0.00,,,0.00,582.06,Weather logger V3.0.,2015-09-01 18:39:00,
2015-09-01 13:45:00,91.9,69.4,29.96,South,187,2.5,4.9,48,0.00,,,0.00,576.10,Weather logger V3.0.,2015-09-01 18:45:00,
2015-09-01 13:50:00,92.1,69.1,29.96,South,183,1.8,2.5,47,0.00,,,0.00,572.09,Weather logger V3.0.,2015-09-01 18:50:00,
2015-09-01 13:55:00,92.1,69.1,29.96,WSW,249,2.5,4.9,47,0.00,,,0.00,575.47,Weather logger V3.0.,2015-09-01 18:55:00,
2015-09-01 14:00:00,92.5,68.7,29.96,West,265,1.8,2.5,46,0.00,,,0.00,575.90,Weather logger V3.0.,2015-09-01 19:00:00,
2015-09-01 14:05:00,92.7,70.2,29.95,WNW,282,1.1,2.5,48,0.00,,,0.00,572.12,Weather logger V3.0.,2015-09-01 19:05:00,
2015-09-01 14:10:00,92.5,68.7,29.96,SSW,202,3.4,4.9,46,0.00,,,0.00,563.40,Weather logger V3.0.,2015-09-01 19:10:00,
2015-09-01 14:15:00,92.3,68.0,29.96,South,180,6.7,7.4,45,0.00,,,0.00,556.81,Weather logger V3.0.,2015-09-01 19:15:00,
2015-09-01 14:20:00,92.5,68.2,29.96,WSW,238,0.9,2.5,45,0.00,,,0.00,557.40,Weather logger V3.0.,2015-09-01 19:20:00,
2015-09-01 14:24:00,92.8,68.4,29.96,SSW,193,1.3,2.5,45,0.00,,,0.00,559.09,Weather logger V3.0.,2015-09-01 19:24:00,
2015-09-01 14:29:00,92.8,69.1,29.95,SSW,192,2.7,4.9,46,0.00,,,0.00,548.98,Weather logger V3.0.,2015-09-01 19:29:00,
2015-09-01 14:34:00,92.8,69.1,29.95,SW,234,0.0,0.0,46,0.00,,,0.00,542.35,Weather logger V3.0.,2015-09-01 19:34:00,
2015-09-01 14:39:00,93.2,70.0,29.96,WSW,243,0.9,2.5,47,0.00,,,0.00,543.94,Weather logger V3.0.,2015-09-01 19:39:00,
2015-09-01 14:45:00,93.4,70.9,29.95,SSW,210,5.1,7.4,48,0.00,,,0.00,539.93,Weather logger V3.0.,2015-09-01 19:45:00,
2015-09-01 14:50:00,93.2,70.0,29.95,WSW,239,0.4,2.5,47,0.00,,,0.00,531.02,Weather logger V3.0.,2015-09-01 19:50:00,
2015-09-01 14:55:00,93.0,70.5,29.96,ENE,78,1.8,2.5,48,0.00,,,0.00,532.47,Weather logger V3.0.,2015-09-01 19:55:00,
2015-09-01 15:00:00,93.0,71.1,29.96,SSW,213,0.4,2.5,49,0.00,,,0.00,529.36,Weather logger V3.0.,2015-09-01 20:00:00,
2015-09-01 15:05:00,93.0,69.3,29.95,SSE,163,3.6,4.9,46,0.00,,,0.00,519.84,Weather logger V3.0.,2015-09-01 20:05:00,
2015-09-01 15:10:00,92.8,70.3,29.95,WSW,242,0.0,0.0,48,0.00,,,0.00,507.64,Weather logger V3.0.,2015-09-01 20:10:00,
2015-09-01 15:15:00,92.8,69.8,29.95,North,5,1.1,2.5,47,0.00,,,0.00,506.25,Weather logger V3.0.,2015-09-01 20:15:00,
2015-09-01 15:20:00,93.0,71.1,29.95,SSW,210,1.8,2.5,49,0.00,,,0.00,501.81,Weather logger V3.0.,2015-09-01 20:20:00,
2015-09-01 15:25:00,93.0,70.5,29.95,SSE,156,4.2,7.4,48,0.00,,,0.00,501.58,Weather logger V3.0.,2015-09-01 20:25:00,
2015-09-01 15:30:00,93.0,70.5,29.95,WSW,250,1.8,2.5,48,0.00,,,0.00,486.86,Weather logger V3.0.,2015-09-01 20:30:00,
2015-09-01 15:35:00,93.0,70.5,29.95,SSE,147,4.0,4.9,48,0.00,,,0.00,476.95,Weather logger V3.0.,2015-09-01 20:35:00,
2015-09-01 15:40:00,93.0,70.5,29.95,SSW,203,2.9,4.9,48,0.00,,,0.00,464.32,Weather logger V3.0.,2015-09-01 20:40:00,
2015-09-01 15:45:00,92.8,69.8,29.95,SSE,151,2.5,4.9,47,0.00,,,0.00,452.45,Weather logger V3.0.,2015-09-01 20:45:00,
2015-09-01 15:50:00,92.7,70.2,29.95,WSW,241,1.1,2.5,48,0.00,,,0.00,442.08,Weather logger V3.0.,2015-09-01 20:50:00,
2015-09-01 15:55:00,92.7,69.6,29.95,SW,228,0.4,2.5,47,0.00,,,0.00,432.73,Weather logger V3.0.,2015-09-01 20:55:00,
2015-09-01 16:01:00,92.7,70.7,29.95,West,260,2.9,4.9,49,0.00,,,0.00,243.48,Weather logger V3.0.,2015-09-01 21:01:00,
2015-09-01 16:06:00,92.3,70.5,29.95,SSW,202,2.9,4.9,49,0.00,,,0.00,227.97,Weather logger V3.0.,2015-09-01 21:06:00,
2015-09-01 16:11:00,91.9,70.2,29.94,SW,230,1.8,2.5,49,0.00,,,0.00,213.64,Weather logger V3.0.,2015-09-01 21:11:00,
2015-09-01 16:16:00,91.6,69.8,29.95,NW,317,0.0,0.0,49,0.00,,,0.00,208.27,Weather logger V3.0.,2015-09-01 21:16:00,
2015-09-01 16:21:00,91.4,70.2,29.95,SE,132,5.1,7.4,50,0.00,,,0.00,203.24,Weather logger V3.0.,2015-09-01 21:21:00,
2015-09-01 16:26:00,91.2,69.4,29.94,South,191,1.3,2.5,49,0.00,,,0.00,201.41,Weather logger V3.0.,2015-09-01 21:26:00,
2015-09-01 16:31:00,90.9,69.1,29.94,SSW,192,4.5,4.9,49,0.00,,,0.00,198.50,Weather logger V3.0.,2015-09-01 21:31:00,
2015-09-01 16:36:00,90.7,69.6,29.94,SSW,213,1.3,2.5,50,0.00,,,0.00,197.90,Weather logger V3.0.,2015-09-01 21:36:00,
2015-09-01 16:41:00,90.5,69.4,29.94,SSE,161,1.8,4.9,50,0.00,,,0.00,190.61,Weather logger V3.0.,2015-09-01 21:41:00,
2015-09-01 16:47:00,90.5,68.7,29.94,South,181,0.2,2.5,49,0.00,,,0.00,184.84,Weather logger V3.0.,2015-09-01 21:47:00,
2015-09-01 16:52:00,90.1,69.1,29.94,South,171,0.2,2.5,50,0.00,,,0.00,177.05,Weather logger V3.0.,2015-09-01 21:52:00,
2015-09-01 16:57:00,90.0,68.9,29.94,SSW,193,0.4,2.5,50,0.00,,,0.00,165.38,Weather logger V3.0.,2015-09-01 21:57:00,
2015-09-01 17:02:00,90.0,69.4,29.94,WSW,248,0.0,0.0,51,0.00,,,0.00,158.25,Weather logger V3.0.,2015-09-01 22:02:00,
2015-09-01 17:07:00,89.8,69.8,29.93,South,187,2.7,4.9,52,0.00,,,0.00,155.14,Weather logger V3.0.,2015-09-01 22:07:00,
2015-09-01 17:12:00,89.6,70.3,29.94,West,278,0.0,0.0,53,0.00,,,0.00,153.51,Weather logger V3.0.,2015-09-01 22:12:00,
2015-09-01 17:17:00,89.4,70.2,29.93,SSE,167,4.9,7.4,53,0.00,,,0.00,154.01,Weather logger V3.0.,2015-09-01 22:17:00,
2015-09-01 17:22:00,89.2,70.5,29.94,SSW,213,0.4,2.5,54,0.00,,,0.00,159.21,Weather logger V3.0.,2015-09-01 22:22:00,
2015-09-01 17:27:00,89.2,70.5,29.94,South,189,0.4,2.5,54,0.00,,,0.00,163.16,Weather logger V3.0.,2015-09-01 22:27:00,
2015-09-01 17:32:00,89.1,70.3,29.94,NW,311,0.0,0.0,54,0.00,,,0.00,168.16,Weather logger V3.0.,2015-09-01 22:32:00,
2015-09-01 17:38:00,88.9,69.6,29.94,SW,229,1.3,2.5,53,0.00,,,0.00,168.20,Weather logger V3.0.,2015-09-01 22:38:00,
2015-09-01 17:43:00,88.9,69.6,29.94,South,172,1.1,2.5,53,0.00,,,0.00,164.98,Weather logger V3.0.,2015-09-01 22:43:00,
2015-09-01 17:48:00,88.9,69.6,29.94,ESE,111,0.4,2.5,53,0.00,,,0.00,158.75,Weather logger V3.0.,2015-09-01 22:48:00,
2015-09-01 17:53:00,88.7,70.0,29.95,SSE,164,0.4,2.5,54,0.00,,,0.00,149.57,Weather logger V3.0.,2015-09-01 22:53:00,
2015-09-01 17:58:00,88.7,70.0,29.94,SW,222,0.0,0.0,54,0.00,,,0.00,131.73,Weather logger V3.0.,2015-09-01 22:58:00,
2015-09-01 18:03:00,88.7,70.0,29.95,WSW,246,0.2,2.5,54,0.00,,,0.00,118.57,Weather logger V3.0.,2015-09-01 23:03:00,
2015-09-01 18:08:00,88.5,70.3,29.95,West,271,0.0,0.0,55,0.00,,,0.00,107.77,Weather logger V3.0.,2015-09-01 23:08:00,
2015-09-01 18:13:00,88.3,70.7,29.95,SSE,162,1.1,2.5,56,0.00,,,0.00,98.02,Weather logger V3.0.,2015-09-01 23:13:00,
2015-09-01 18:18:00,88.0,70.3,29.95,SSW,204,0.0,0.0,56,0.00,,,0.00,88.71,Weather logger V3.0.,2015-09-01 23:18:00,